sensor_id;sensor_type;location;lat;lon;timestamp;temperature;humidity
48836;DHT22;62581;47.342;7.908;2023-12-22T00:01:12;9.00;99.90
48836;DHT22;62581;47.342;7.908;2023-12-22T00:03:41;9.10;99.90
48836;DHT22;62581;47.342;7.908;2023-12-22T00:06:09;9.10;99.90
48836;DHT22;62581;47.342;7.908;2023-12-22T00:08:37;9.10;99.90
48836;DHT22;62581;47.342;7.908;2023-12-22T00:11:04;9.10;99.90
48836;DHT22;62581;47.342;7.908;2023-12-22T00:13:31;9.10;99.90
48836;DHT22;62581;47.342;7.908;2023-12-22T00:15:59;9.10;99.90
48836;DHT22;62581;47.342;7.908;2023-12-22T00:18:26;9.00;99.90
48836;DHT22;62581;47.342;7.908;2023-12-22T00:20:53;8.80;99.90
48836;DHT22;62581;47.342;7.908;2023-12-22T00:23:21;8.80;99.90
48836;DHT22;62581;47.342;7.908;2023-12-22T00:25:48;8.70;99.90
48836;DHT22;62581;47.342;7.908;2023-12-22T00:28:15;8.80;99.90
48836;DHT22;62581;47.342;7.908;2023-12-22T00:30:42;8.70;99.90
48836;DHT22;62581;47.342;7.908;2023-12-22T00:33:09;8.70;99.90
48836;DHT22;62581;47.342;7.908;2023-12-22T00:35:37;8.70;99.90
48836;DHT22;62581;47.342;7.908;2023-12-22T00:38:03;8.70;99.90
48836;DHT22;62581;47.342;7.908;2023-12-22T00:40:32;8.60;99.90
48836;DHT22;62581;47.342;7.908;2023-12-22T00:42:59;8.60;99.90
48836;DHT22;62581;47.342;7.908;2023-12-22T00:45:26;8.60;99.90
48836;DHT22;62581;47.342;7.908;2023-12-22T00:47:53;8.70;99.90
48836;DHT22;62581;47.342;7.908;2023-12-22T00:50:20;8.80;99.90
48836;DHT22;62581;47.342;7.908;2023-12-22T00:52:47;8.90;99.90
48836;DHT22;62581;47.342;7.908;2023-12-22T00:55:14;9.00;99.90
48836;DHT22;62581;47.342;7.908;2023-12-22T00:57:42;9.00;99.90
48836;DHT22;62581;47.342;7.908;2023-12-22T01:00:10;9.00;99.90
48836;DHT22;62581;47.342;7.908;2023-12-22T01:02:38;9.10;99.90
48836;DHT22;62581;47.342;7.908;2023-12-22T01:05:05;9.10;99.90
48836;DHT22;62581;47.342;7.908;2023-12-22T01:07:32;9.00;99.90
48836;DHT22;62581;47.342;7.908;2023-12-22T01:09:59;9.00;99.90
48836;DHT22;62581;47.342;7.908;2023-12-22T01:12:27;9.00;99.90
48836;DHT22;62581;47.342;7.908;2023-12-22T01:14:56;9.10;99.90
48836;DHT22;62581;47.342;7.908;2023-12-22T01:17:23;9.00;99.90
48836;DHT22;62581;47.342;7.908;2023-12-22T01:19:50;9.00;99.90
48836;DHT22;62581;47.342;7.908;2023-12-22T01:22:17;8.90;99.90
48836;DHT22;62581;47.342;7.908;2023-12-22T01:24:44;8.90;99.90
48836;DHT22;62581;47.342;7.908;2023-12-22T01:27:12;8.80;99.90
48836;DHT22;62581;47.342;7.908;2023-12-22T01:29:39;8.90;99.90
48836;DHT22;62581;47.342;7.908;2023-12-22T01:32:07;8.90;99.90
48836;DHT22;62581;47.342;7.908;2023-12-22T01:34:34;9.00;99.90
48836;DHT22;62581;47.342;7.908;2023-12-22T01:37:01;9.00;99.90
48836;DHT22;62581;47.342;7.908;2023-12-22T01:39:28;9.00;99.90
48836;DHT22;62581;47.342;7.908;2023-12-22T01:41:55;9.00;99.90
48836;DHT22;62581;47.342;7.908;2023-12-22T01:44:22;9.00;99.90
48836;DHT22;62581;47.342;7.908;2023-12-22T01:46:49;8.80;99.90
48836;DHT22;62581;47.342;7.908;2023-12-22T01:49:20;8.80;99.90
48836;DHT22;62581;47.342;7.908;2023-12-22T01:51:49;8.80;99.90
48836;DHT22;62581;47.342;7.908;2023-12-22T01:54:16;8.80;99.90
48836;DHT22;62581;47.342;7.908;2023-12-22T01:56:43;8.80;99.90
48836;DHT22;62581;47.342;7.908;2023-12-22T01:59:11;8.70;99.90
48836;DHT22;62581;47.342;7.908;2023-12-22T02:01:39;8.60;99.90
48836;DHT22;62581;47.342;7.908;2023-12-22T02:04:07;8.50;99.90
48836;DHT22;62581;47.342;7.908;2023-12-22T02:06:35;8.50;99.90
48836;DHT22;62581;47.342;7.908;2023-12-22T02:09:02;8.50;99.90
48836;DHT22;62581;47.342;7.908;2023-12-22T02:11:30;8.40;99.90
48836;DHT22;62581;47.342;7.908;2023-12-22T02:13:57;8.40;99.90
48836;DHT22;62581;47.342;7.908;2023-12-22T02:16:31;8.40;99.90
48836;DHT22;62581;47.342;7.908;2023-12-22T02:19:04;8.30;99.90
48836;DHT22;62581;47.342;7.908;2023-12-22T02:22:01;8.30;99.90
48836;DHT22;62581;47.342;7.908;2023-12-22T02:24:30;8.40;99.90
48836;DHT22;62581;47.342;7.908;2023-12-22T02:27:03;8.30;99.90
48836;DHT22;62581;47.342;7.908;2023-12-22T02:29:32;8.30;99.90
48836;DHT22;62581;47.342;7.908;2023-12-22T02:32:06;8.30;99.90
48836;DHT22;62581;47.342;7.908;2023-12-22T02:34:35;8.20;99.90
48836;DHT22;62581;47.342;7.908;2023-12-22T02:37:06;8.20;99.90
48836;DHT22;62581;47.342;7.908;2023-12-22T02:39:35;8.20;99.90
48836;DHT22;62581;47.342;7.908;2023-12-22T02:42:04;8.20;99.90
48836;DHT22;62581;47.342;7.908;2023-12-22T02:44:31;8.10;99.90
48836;DHT22;62581;47.342;7.908;2023-12-22T02:46:58;8.00;99.90
48836;DHT22;62581;47.342;7.908;2023-12-22T02:49:28;7.90;99.90
48836;DHT22;62581;47.342;7.908;2023-12-22T02:51:54;7.80;99.90
48836;DHT22;62581;47.342;7.908;2023-12-22T02:54:21;7.70;99.90
48836;DHT22;62581;47.342;7.908;2023-12-22T02:56:49;7.70;99.90
48836;DHT22;62581;47.342;7.908;2023-12-22T02:59:16;7.70;99.90
48836;DHT22;62581;47.342;7.908;2023-12-22T03:01:43;7.60;99.90
48836;DHT22;62581;47.342;7.908;2023-12-22T03:04:10;7.60;99.90
48836;DHT22;62581;47.342;7.908;2023-12-22T03:06:37;7.60;99.90
48836;DHT22;62581;47.342;7.908;2023-12-22T03:09:05;7.60;99.90
48836;DHT22;62581;47.342;7.908;2023-12-22T03:11:32;7.60;99.90
48836;DHT22;62581;47.342;7.908;2023-12-22T03:14:00;7.60;99.90
48836;DHT22;62581;47.342;7.908;2023-12-22T03:16:27;7.60;99.90
48836;DHT22;62581;47.342;7.908;2023-12-22T03:18:54;7.70;99.90
48836;DHT22;62581;47.342;7.908;2023-12-22T03:21:21;7.70;99.90
48836;DHT22;62581;47.342;7.908;2023-12-22T03:23:48;7.70;99.90
48836;DHT22;62581;47.342;7.908;2023-12-22T03:26:15;7.80;99.90
48836;DHT22;62581;47.342;7.908;2023-12-22T03:28:42;7.90;99.90
48836;DHT22;62581;47.342;7.908;2023-12-22T03:31:10;8.10;99.90
48836;DHT22;62581;47.342;7.908;2023-12-22T03:33:37;8.30;99.90
48836;DHT22;62581;47.342;7.908;2023-12-22T03:36:05;8.30;99.90
48836;DHT22;62581;47.342;7.908;2023-12-22T03:38:31;8.20;99.90
48836;DHT22;62581;47.342;7.908;2023-12-22T03:40:58;8.20;99.90
48836;DHT22;62581;47.342;7.908;2023-12-22T03:43:25;8.20;99.90
48836;DHT22;62581;47.342;7.908;2023-12-22T03:45:52;8.10;99.90
48836;DHT22;62581;47.342;7.908;2023-12-22T03:48:21;8.10;99.90
48836;DHT22;62581;47.342;7.908;2023-12-22T03:50:48;8.10;99.90
48836;DHT22;62581;47.342;7.908;2023-12-22T03:53:15;8.10;99.90
48836;DHT22;62581;47.342;7.908;2023-12-22T03:55:42;8.10;99.90
48836;DHT22;62581;47.342;7.908;2023-12-22T03:58:09;8.10;99.90
48836;DHT22;62581;47.342;7.908;2023-12-22T04:00:36;8.10;99.90
48836;DHT22;62581;47.342;7.908;2023-12-22T04:03:04;8.00;99.90
48836;DHT22;62581;47.342;7.908;2023-12-22T04:05:32;8.10;99.90
48836;DHT22;62581;47.342;7.908;2023-12-22T04:07:59;8.10;99.90
48836;DHT22;62581;47.342;7.908;2023-12-22T04:10:26;8.20;99.90
48836;DHT22;62581;47.342;7.908;2023-12-22T04:12:53;8.30;99.90
48836;DHT22;62581;47.342;7.908;2023-12-22T04:15:20;8.30;99.90
48836;DHT22;62581;47.342;7.908;2023-12-22T04:17:47;8.30;99.90
48836;DHT22;62581;47.342;7.908;2023-12-22T04:20:15;8.40;99.90
48836;DHT22;62581;47.342;7.908;2023-12-22T04:22:43;8.40;99.90
48836;DHT22;62581;47.342;7.908;2023-12-22T04:25:10;8.50;99.90
48836;DHT22;62581;47.342;7.908;2023-12-22T04:27:37;8.40;99.90
48836;DHT22;62581;47.342;7.908;2023-12-22T04:30:05;8.50;99.90
48836;DHT22;62581;47.342;7.908;2023-12-22T04:32:32;8.60;99.90
48836;DHT22;62581;47.342;7.908;2023-12-22T04:34:59;8.60;99.90
48836;DHT22;62581;47.342;7.908;2023-12-22T04:37:26;8.50;99.90
48836;DHT22;62581;47.342;7.908;2023-12-22T04:39:55;8.30;99.90
48836;DHT22;62581;47.342;7.908;2023-12-22T04:42:22;8.20;99.90
48836;DHT22;62581;47.342;7.908;2023-12-22T04:44:50;8.20;99.90
48836;DHT22;62581;47.342;7.908;2023-12-22T04:47:17;8.20;99.90
48836;DHT22;62581;47.342;7.908;2023-12-22T04:49:44;8.30;99.90
48836;DHT22;62581;47.342;7.908;2023-12-22T04:52:12;8.30;99.90
48836;DHT22;62581;47.342;7.908;2023-12-22T04:54:39;8.30;99.90
48836;DHT22;62581;47.342;7.908;2023-12-22T04:57:07;8.40;99.90
48836;DHT22;62581;47.342;7.908;2023-12-22T04:59:34;8.60;99.90
48836;DHT22;62581;47.342;7.908;2023-12-22T05:02:01;8.60;99.90
48836;DHT22;62581;47.342;7.908;2023-12-22T05:04:28;8.60;99.90
48836;DHT22;62581;47.342;7.908;2023-12-22T05:06:55;8.60;99.90
48836;DHT22;62581;47.342;7.908;2023-12-22T05:09:23;8.50;99.90
48836;DHT22;62581;47.342;7.908;2023-12-22T05:11:50;8.60;99.90
48836;DHT22;62581;47.342;7.908;2023-12-22T05:14:19;8.50;99.90
48836;DHT22;62581;47.342;7.908;2023-12-22T05:16:45;8.50;99.90
48836;DHT22;62581;47.342;7.908;2023-12-22T05:19:13;8.50;99.90
48836;DHT22;62581;47.342;7.908;2023-12-22T05:21:40;8.50;99.90
48836;DHT22;62581;47.342;7.908;2023-12-22T05:24:07;8.50;99.90
48836;DHT22;62581;47.342;7.908;2023-12-22T05:26:34;8.50;99.90
48836;DHT22;62581;47.342;7.908;2023-12-22T05:29:00;8.50;99.90
48836;DHT22;62581;47.342;7.908;2023-12-22T05:31:29;8.50;99.90
48836;DHT22;62581;47.342;7.908;2023-12-22T05:33:58;8.60;99.90
48836;DHT22;62581;47.342;7.908;2023-12-22T05:36:25;8.60;99.90
48836;DHT22;62581;47.342;7.908;2023-12-22T05:38:52;8.60;99.90
48836;DHT22;62581;47.342;7.908;2023-12-22T05:41:19;8.70;99.90
48836;DHT22;62581;47.342;7.908;2023-12-22T05:43:46;8.60;99.90
48836;DHT22;62581;47.342;7.908;2023-12-22T05:46:13;8.60;99.90
48836;DHT22;62581;47.342;7.908;2023-12-22T05:48:41;8.60;99.90
48836;DHT22;62581;47.342;7.908;2023-12-22T05:51:08;8.50;99.90
48836;DHT22;62581;47.342;7.908;2023-12-22T05:53:39;8.50;99.90
48836;DHT22;62581;47.342;7.908;2023-12-22T05:56:16;8.40;99.90
48836;DHT22;62581;47.342;7.908;2023-12-22T05:58:44;8.50;99.90
48836;DHT22;62581;47.342;7.908;2023-12-22T06:01:14;8.50;99.90
48836;DHT22;62581;47.342;7.908;2023-12-22T06:03:43;8.50;99.90
48836;DHT22;62581;47.342;7.908;2023-12-22T06:06:10;8.40;99.90
48836;DHT22;62581;47.342;7.908;2023-12-22T06:08:37;8.40;99.90
48836;DHT22;62581;47.342;7.908;2023-12-22T06:11:04;8.30;99.90
48836;DHT22;62581;47.342;7.908;2023-12-22T06:13:32;8.40;99.90
48836;DHT22;62581;47.342;7.908;2023-12-22T06:15:59;8.40;99.90
48836;DHT22;62581;47.342;7.908;2023-12-22T06:18:26;8.50;99.90
48836;DHT22;62581;47.342;7.908;2023-12-22T06:20:54;8.50;99.90
48836;DHT22;62581;47.342;7.908;2023-12-22T06:23:22;8.50;99.90
48836;DHT22;62581;47.342;7.908;2023-12-22T06:25:49;8.50;99.90
48836;DHT22;62581;47.342;7.908;2023-12-22T06:28:16;8.50;99.90
48836;DHT22;62581;47.342;7.908;2023-12-22T06:30:43;8.50;99.90
48836;DHT22;62581;47.342;7.908;2023-12-22T06:33:10;8.50;99.90
48836;DHT22;62581;47.342;7.908;2023-12-22T06:35:38;8.60;99.90
48836;DHT22;62581;47.342;7.908;2023-12-22T06:38:07;8.60;99.90
48836;DHT22;62581;47.342;7.908;2023-12-22T06:40:35;8.70;99.90
48836;DHT22;62581;47.342;7.908;2023-12-22T06:43:02;8.70;99.90
48836;DHT22;62581;47.342;7.908;2023-12-22T06:45:30;8.70;99.90
48836;DHT22;62581;47.342;7.908;2023-12-22T06:47:57;8.70;99.90
48836;DHT22;62581;47.342;7.908;2023-12-22T06:50:24;8.70;99.90
48836;DHT22;62581;47.342;7.908;2023-12-22T06:52:51;8.70;99.90
48836;DHT22;62581;47.342;7.908;2023-12-22T06:55:19;8.70;99.90
48836;DHT22;62581;47.342;7.908;2023-12-22T06:57:46;8.70;99.90
48836;DHT22;62581;47.342;7.908;2023-12-22T07:00:14;8.70;99.90
48836;DHT22;62581;47.342;7.908;2023-12-22T07:02:41;8.70;99.90
48836;DHT22;62581;47.342;7.908;2023-12-22T07:05:30;8.70;99.90
48836;DHT22;62581;47.342;7.908;2023-12-22T07:07:57;8.70;99.90
48836;DHT22;62581;47.342;7.908;2023-12-22T07:10:26;8.70;99.90
48836;DHT22;62581;47.342;7.908;2023-12-22T07:12:52;8.60;99.90
48836;DHT22;62581;47.342;7.908;2023-12-22T07:15:19;8.70;99.90
48836;DHT22;62581;47.342;7.908;2023-12-22T07:17:46;8.70;99.90
48836;DHT22;62581;47.342;7.908;2023-12-22T07:20:13;8.60;99.90
48836;DHT22;62581;47.342;7.908;2023-12-22T07:22:40;8.60;99.90
48836;DHT22;62581;47.342;7.908;2023-12-22T07:25:08;8.60;99.90
48836;DHT22;62581;47.342;7.908;2023-12-22T07:27:36;8.60;99.90
48836;DHT22;62581;47.342;7.908;2023-12-22T07:30:04;8.60;99.90
48836;DHT22;62581;47.342;7.908;2023-12-22T07:32:31;8.60;99.90
48836;DHT22;62581;47.342;7.908;2023-12-22T07:34:58;8.60;99.90
48836;DHT22;62581;47.342;7.908;2023-12-22T07:37:25;8.60;99.90
48836;DHT22;62581;47.342;7.908;2023-12-22T07:39:52;8.60;99.90
48836;DHT22;62581;47.342;7.908;2023-12-22T07:42:19;8.60;99.90
48836;DHT22;62581;47.342;7.908;2023-12-22T07:44:47;8.60;99.90
48836;DHT22;62581;47.342;7.908;2023-12-22T07:47:14;8.50;99.90
48836;DHT22;62581;47.342;7.908;2023-12-22T07:49:41;8.50;99.90
48836;DHT22;62581;47.342;7.908;2023-12-22T07:52:07;8.50;99.90
48836;DHT22;62581;47.342;7.908;2023-12-22T07:54:35;8.50;99.90
48836;DHT22;62581;47.342;7.908;2023-12-22T07:57:02;8.50;99.90
48836;DHT22;62581;47.342;7.908;2023-12-22T07:59:29;8.60;99.90
48836;DHT22;62581;47.342;7.908;2023-12-22T08:01:58;8.60;99.90
48836;DHT22;62581;47.342;7.908;2023-12-22T08:04:25;8.60;99.90
48836;DHT22;62581;47.342;7.908;2023-12-22T08:06:50;8.70;99.90
48836;DHT22;62581;47.342;7.908;2023-12-22T08:09:18;8.70;99.90
48836;DHT22;62581;47.342;7.908;2023-12-22T08:11:45;8.80;99.90
48836;DHT22;62581;47.342;7.908;2023-12-22T08:14:13;8.70;99.90
48836;DHT22;62581;47.342;7.908;2023-12-22T08:16:40;8.70;99.90
48836;DHT22;62581;47.342;7.908;2023-12-22T08:19:10;8.70;99.90
48836;DHT22;62581;47.342;7.908;2023-12-22T08:21:37;8.70;99.90
48836;DHT22;62581;47.342;7.908;2023-12-22T08:24:04;8.70;99.90
48836;DHT22;62581;47.342;7.908;2023-12-22T08:26:31;8.70;99.90
48836;DHT22;62581;47.342;7.908;2023-12-22T08:28:58;8.70;99.90
48836;DHT22;62581;47.342;7.908;2023-12-22T08:31:25;8.70;99.90
48836;DHT22;62581;47.342;7.908;2023-12-22T08:33:52;8.70;99.90
48836;DHT22;62581;47.342;7.908;2023-12-22T08:36:20;8.60;99.90
48836;DHT22;62581;47.342;7.908;2023-12-22T08:38:47;8.70;99.90
48836;DHT22;62581;47.342;7.908;2023-12-22T08:41:14;8.70;99.90
48836;DHT22;62581;47.342;7.908;2023-12-22T08:43:41;8.70;99.90
48836;DHT22;62581;47.342;7.908;2023-12-22T08:46:08;8.80;99.90
48836;DHT22;62581;47.342;7.908;2023-12-22T08:48:35;8.70;99.90
48836;DHT22;62581;47.342;7.908;2023-12-22T08:51:03;8.70;99.90
48836;DHT22;62581;47.342;7.908;2023-12-22T08:53:32;8.70;99.90
48836;DHT22;62581;47.342;7.908;2023-12-22T08:56:03;8.60;99.90
48836;DHT22;62581;47.342;7.908;2023-12-22T08:58:30;8.70;99.90
48836;DHT22;62581;47.342;7.908;2023-12-22T09:00:57;8.70;99.90
48836;DHT22;62581;47.342;7.908;2023-12-22T09:03:24;8.70;99.90
48836;DHT22;62581;47.342;7.908;2023-12-22T09:05:52;8.70;99.90
48836;DHT22;62581;47.342;7.908;2023-12-22T09:08:19;8.70;99.90
48836;DHT22;62581;47.342;7.908;2023-12-22T09:10:47;8.60;99.90
48836;DHT22;62581;47.342;7.908;2023-12-22T09:13:15;8.70;99.90
48836;DHT22;62581;47.342;7.908;2023-12-22T09:15:42;8.70;99.90
48836;DHT22;62581;47.342;7.908;2023-12-22T09:18:12;8.70;99.90
48836;DHT22;62581;47.342;7.908;2023-12-22T09:20:40;8.70;99.90
48836;DHT22;62581;47.342;7.908;2023-12-22T09:23:07;8.70;99.90
48836;DHT22;62581;47.342;7.908;2023-12-22T09:25:35;8.70;99.90
48836;DHT22;62581;47.342;7.908;2023-12-22T09:28:04;8.70;99.90
48836;DHT22;62581;47.342;7.908;2023-12-22T09:30:31;8.70;99.90
48836;DHT22;62581;47.342;7.908;2023-12-22T09:32:58;8.70;99.90
48836;DHT22;62581;47.342;7.908;2023-12-22T09:35:25;8.80;99.90
48836;DHT22;62581;47.342;7.908;2023-12-22T09:37:53;8.80;99.90
48836;DHT22;62581;47.342;7.908;2023-12-22T09:40:20;8.80;99.90
48836;DHT22;62581;47.342;7.908;2023-12-22T09:42:49;8.90;99.90
48836;DHT22;62581;47.342;7.908;2023-12-22T09:45:18;8.90;99.90
48836;DHT22;62581;47.342;7.908;2023-12-22T09:47:46;8.90;99.90
48836;DHT22;62581;47.342;7.908;2023-12-22T09:50:14;8.90;99.90
48836;DHT22;62581;47.342;7.908;2023-12-22T09:52:43;8.90;99.90
48836;DHT22;62581;47.342;7.908;2023-12-22T09:55:12;8.90;99.90
48836;DHT22;62581;47.342;7.908;2023-12-22T09:57:39;9.00;99.90
48836;DHT22;62581;47.342;7.908;2023-12-22T10:00:08;9.00;99.90
48836;DHT22;62581;47.342;7.908;2023-12-22T10:02:37;9.10;99.90
48836;DHT22;62581;47.342;7.908;2023-12-22T10:05:04;9.10;99.90
48836;DHT22;62581;47.342;7.908;2023-12-22T10:07:32;9.10;99.90
48836;DHT22;62581;47.342;7.908;2023-12-22T10:09:59;9.10;99.90
48836;DHT22;62581;47.342;7.908;2023-12-22T10:12:29;9.10;99.90
48836;DHT22;62581;47.342;7.908;2023-12-22T10:14:59;9.10;99.90
48836;DHT22;62581;47.342;7.908;2023-12-22T10:17:27;9.10;99.90
48836;DHT22;62581;47.342;7.908;2023-12-22T10:19:56;9.00;99.90
48836;DHT22;62581;47.342;7.908;2023-12-22T10:22:23;8.90;99.90
48836;DHT22;62581;47.342;7.908;2023-12-22T10:24:50;8.90;99.90
48836;DHT22;62581;47.342;7.908;2023-12-22T10:27:18;8.70;99.90
48836;DHT22;62581;47.342;7.908;2023-12-22T10:29:48;8.70;99.90
48836;DHT22;62581;47.342;7.908;2023-12-22T10:32:15;8.70;99.90
48836;DHT22;62581;47.342;7.908;2023-12-22T10:34:42;8.70;99.90
48836;DHT22;62581;47.342;7.908;2023-12-22T10:37:10;8.80;99.90
48836;DHT22;62581;47.342;7.908;2023-12-22T10:39:39;8.80;99.90
48836;DHT22;62581;47.342;7.908;2023-12-22T10:42:06;8.80;99.90
48836;DHT22;62581;47.342;7.908;2023-12-22T10:44:33;8.70;99.90
48836;DHT22;62581;47.342;7.908;2023-12-22T10:47:00;8.60;99.90
48836;DHT22;62581;47.342;7.908;2023-12-22T10:49:28;8.50;99.90
48836;DHT22;62581;47.342;7.908;2023-12-22T10:51:57;8.40;99.90
48836;DHT22;62581;47.342;7.908;2023-12-22T10:54:25;8.20;99.90
48836;DHT22;62581;47.342;7.908;2023-12-22T10:56:57;8.10;99.90
48836;DHT22;62581;47.342;7.908;2023-12-22T10:59:28;8.00;99.90
48836;DHT22;62581;47.342;7.908;2023-12-22T11:01:57;7.80;99.90
48836;DHT22;62581;47.342;7.908;2023-12-22T11:04:29;7.70;99.90
48836;DHT22;62581;47.342;7.908;2023-12-22T11:06:57;7.60;99.90
48836;DHT22;62581;47.342;7.908;2023-12-22T11:09:31;7.60;99.90
48836;DHT22;62581;47.342;7.908;2023-12-22T11:12:00;7.50;99.90
48836;DHT22;62581;47.342;7.908;2023-12-22T11:14:29;7.40;99.90
48836;DHT22;62581;47.342;7.908;2023-12-22T11:16:59;7.50;99.90
48836;DHT22;62581;47.342;7.908;2023-12-22T11:19:28;7.40;99.90
48836;DHT22;62581;47.342;7.908;2023-12-22T11:21:58;7.40;99.90
48836;DHT22;62581;47.342;7.908;2023-12-22T11:24:28;7.40;99.90
48836;DHT22;62581;47.342;7.908;2023-12-22T11:26:58;7.30;99.90
48836;DHT22;62581;47.342;7.908;2023-12-22T11:29:26;7.20;99.90
48836;DHT22;62581;47.342;7.908;2023-12-22T11:31:54;7.20;99.90
48836;DHT22;62581;47.342;7.908;2023-12-22T11:34:23;7.20;99.90
48836;DHT22;62581;47.342;7.908;2023-12-22T11:36:53;7.20;99.90
48836;DHT22;62581;47.342;7.908;2023-12-22T11:39:20;7.20;99.90
48836;DHT22;62581;47.342;7.908;2023-12-22T11:41:50;7.20;99.90
48836;DHT22;62581;47.342;7.908;2023-12-22T11:44:18;7.20;99.90
48836;DHT22;62581;47.342;7.908;2023-12-22T11:46:45;7.20;99.90
48836;DHT22;62581;47.342;7.908;2023-12-22T11:49:13;7.20;99.90
48836;DHT22;62581;47.342;7.908;2023-12-22T11:51:40;7.20;99.90
48836;DHT22;62581;47.342;7.908;2023-12-22T11:57:29;7.30;99.90
48836;DHT22;62581;47.342;7.908;2023-12-22T11:59:57;7.30;99.90
48836;DHT22;62581;47.342;7.908;2023-12-22T12:02:24;7.30;99.90
48836;DHT22;62581;47.342;7.908;2023-12-22T12:04:52;7.30;99.90
48836;DHT22;62581;47.342;7.908;2023-12-22T12:07:42;7.30;99.90
48836;DHT22;62581;47.342;7.908;2023-12-22T12:10:11;7.30;99.90
48836;DHT22;62581;47.342;7.908;2023-12-22T12:12:40;7.30;99.90
48836;DHT22;62581;47.342;7.908;2023-12-22T12:15:09;7.30;99.90
48836;DHT22;62581;47.342;7.908;2023-12-22T12:17:41;7.30;99.90
48836;DHT22;62581;47.342;7.908;2023-12-22T12:20:09;7.30;99.90
48836;DHT22;62581;47.342;7.908;2023-12-22T12:22:37;7.40;99.90
48836;DHT22;62581;47.342;7.908;2023-12-22T12:25:09;7.40;99.90
48836;DHT22;62581;47.342;7.908;2023-12-22T12:27:37;7.40;99.90
48836;DHT22;62581;47.342;7.908;2023-12-22T12:30:12;7.50;99.90
48836;DHT22;62581;47.342;7.908;2023-12-22T12:32:42;7.50;99.90
48836;DHT22;62581;47.342;7.908;2023-12-22T12:35:10;7.50;99.90
48836;DHT22;62581;47.342;7.908;2023-12-22T12:37:38;7.50;99.90
48836;DHT22;62581;47.342;7.908;2023-12-22T12:40:08;7.50;99.90
48836;DHT22;62581;47.342;7.908;2023-12-22T12:42:36;7.50;99.90
48836;DHT22;62581;47.342;7.908;2023-12-22T12:45:05;7.60;99.90
48836;DHT22;62581;47.342;7.908;2023-12-22T12:47:34;7.60;99.90
48836;DHT22;62581;47.342;7.908;2023-12-22T12:50:01;7.60;99.90
48836;DHT22;62581;47.342;7.908;2023-12-22T12:52:28;7.60;99.90
48836;DHT22;62581;47.342;7.908;2023-12-22T12:54:55;7.60;99.90
48836;DHT22;62581;47.342;7.908;2023-12-22T12:57:24;7.60;99.90
48836;DHT22;62581;47.342;7.908;2023-12-22T12:59:52;7.60;99.90
48836;DHT22;62581;47.342;7.908;2023-12-22T13:02:19;7.70;99.90
48836;DHT22;62581;47.342;7.908;2023-12-22T13:04:48;7.70;99.90
48836;DHT22;62581;47.342;7.908;2023-12-22T13:07:24;7.70;99.90
48836;DHT22;62581;47.342;7.908;2023-12-22T13:09:51;7.70;99.90
48836;DHT22;62581;47.342;7.908;2023-12-22T13:12:19;7.70;99.90
48836;DHT22;62581;47.342;7.908;2023-12-22T13:14:47;7.70;99.90
48836;DHT22;62581;47.342;7.908;2023-12-22T13:17:15;7.80;99.90
48836;DHT22;62581;47.342;7.908;2023-12-22T13:19:42;7.80;99.90
48836;DHT22;62581;47.342;7.908;2023-12-22T13:22:11;7.80;99.90
48836;DHT22;62581;47.342;7.908;2023-12-22T13:24:38;7.80;99.90
48836;DHT22;62581;47.342;7.908;2023-12-22T13:27:05;7.80;99.90
48836;DHT22;62581;47.342;7.908;2023-12-22T13:29:42;7.90;99.90
48836;DHT22;62581;47.342;7.908;2023-12-22T13:32:15;7.90;99.90
48836;DHT22;62581;47.342;7.908;2023-12-22T13:34:50;7.90;99.90
48836;DHT22;62581;47.342;7.908;2023-12-22T13:37:18;7.90;99.90
48836;DHT22;62581;47.342;7.908;2023-12-22T13:39:45;7.90;99.90
48836;DHT22;62581;47.342;7.908;2023-12-22T13:42:16;7.90;99.90
48836;DHT22;62581;47.342;7.908;2023-12-22T13:44:47;7.90;99.90
48836;DHT22;62581;47.342;7.908;2023-12-22T13:47:15;7.90;99.90
48836;DHT22;62581;47.342;7.908;2023-12-22T13:49:42;7.90;99.90
48836;DHT22;62581;47.342;7.908;2023-12-22T13:55:11;7.80;99.90
48836;DHT22;62581;47.342;7.908;2023-12-22T13:57:39;7.80;99.90
48836;DHT22;62581;47.342;7.908;2023-12-22T14:00:24;7.80;99.90
48836;DHT22;62581;47.342;7.908;2023-12-22T14:02:52;7.90;99.90
48836;DHT22;62581;47.342;7.908;2023-12-22T14:05:19;7.90;99.90
48836;DHT22;62581;47.342;7.908;2023-12-22T14:07:47;7.90;99.90
48836;DHT22;62581;47.342;7.908;2023-12-22T14:10:15;7.90;99.90
48836;DHT22;62581;47.342;7.908;2023-12-22T14:12:42;7.90;99.90
48836;DHT22;62581;47.342;7.908;2023-12-22T14:15:10;7.90;99.90
48836;DHT22;62581;47.342;7.908;2023-12-22T14:17:37;7.90;99.90
48836;DHT22;62581;47.342;7.908;2023-12-22T14:20:05;7.90;99.90
48836;DHT22;62581;47.342;7.908;2023-12-22T14:22:35;7.90;99.90
48836;DHT22;62581;47.342;7.908;2023-12-22T14:25:03;7.90;99.90
48836;DHT22;62581;47.342;7.908;2023-12-22T14:27:31;7.90;99.90
48836;DHT22;62581;47.342;7.908;2023-12-22T14:29:58;7.90;99.90
48836;DHT22;62581;47.342;7.908;2023-12-22T14:32:25;7.90;99.90
48836;DHT22;62581;47.342;7.908;2023-12-22T14:34:52;7.90;99.90
48836;DHT22;62581;47.342;7.908;2023-12-22T14:37:19;7.90;99.90
48836;DHT22;62581;47.342;7.908;2023-12-22T14:39:47;7.90;99.90
48836;DHT22;62581;47.342;7.908;2023-12-22T14:42:14;7.90;99.90
48836;DHT22;62581;47.342;7.908;2023-12-22T14:44:42;7.90;99.90
48836;DHT22;62581;47.342;7.908;2023-12-22T14:47:09;7.90;99.90
48836;DHT22;62581;47.342;7.908;2023-12-22T14:49:36;7.90;99.90
48836;DHT22;62581;47.342;7.908;2023-12-22T14:52:03;8.00;99.90
48836;DHT22;62581;47.342;7.908;2023-12-22T14:54:30;8.00;99.90
48836;DHT22;62581;47.342;7.908;2023-12-22T14:56:57;8.00;99.90
48836;DHT22;62581;47.342;7.908;2023-12-22T14:59:24;8.00;99.90
48836;DHT22;62581;47.342;7.908;2023-12-22T15:01:52;8.00;99.90
48836;DHT22;62581;47.342;7.908;2023-12-22T15:04:19;8.00;99.90
48836;DHT22;62581;47.342;7.908;2023-12-22T15:06:46;8.10;99.90
48836;DHT22;62581;47.342;7.908;2023-12-22T15:09:13;8.10;99.90
48836;DHT22;62581;47.342;7.908;2023-12-22T15:11:43;8.10;99.90
48836;DHT22;62581;47.342;7.908;2023-12-22T15:14:11;8.10;99.90
48836;DHT22;62581;47.342;7.908;2023-12-22T15:16:40;8.10;99.90
48836;DHT22;62581;47.342;7.908;2023-12-22T15:19:12;8.10;99.90
48836;DHT22;62581;47.342;7.908;2023-12-22T15:21:40;8.10;99.90
48836;DHT22;62581;47.342;7.908;2023-12-22T15:24:07;8.10;99.90
48836;DHT22;62581;47.342;7.908;2023-12-22T15:26:34;8.10;99.90
48836;DHT22;62581;47.342;7.908;2023-12-22T15:29:01;8.10;99.90
48836;DHT22;62581;47.342;7.908;2023-12-22T15:31:28;8.10;99.90
48836;DHT22;62581;47.342;7.908;2023-12-22T15:33:56;8.10;99.90
48836;DHT22;62581;47.342;7.908;2023-12-22T15:36:24;8.10;99.90
48836;DHT22;62581;47.342;7.908;2023-12-22T15:38:52;8.10;99.90
48836;DHT22;62581;47.342;7.908;2023-12-22T15:41:19;8.10;99.90
48836;DHT22;62581;47.342;7.908;2023-12-22T15:43:46;8.10;99.90
48836;DHT22;62581;47.342;7.908;2023-12-22T15:46:14;8.10;99.90
48836;DHT22;62581;47.342;7.908;2023-12-22T15:48:41;8.10;99.90
48836;DHT22;62581;47.342;7.908;2023-12-22T15:51:10;8.20;99.90
48836;DHT22;62581;47.342;7.908;2023-12-22T15:53:38;8.20;99.90
48836;DHT22;62581;47.342;7.908;2023-12-22T15:56:07;8.10;99.90